createdAt,value
2023-04-11T00:00:34.656Z,22.62
2023-04-11T00:01:34.718Z,22.65
2023-04-11T00:02:34.713Z,22.68
2023-04-11T00:03:34.954Z,22.65
2023-04-11T00:04:34.890Z,22.67
2023-04-11T00:05:34.731Z,22.65
2023-04-11T00:06:34.788Z,22.65
2023-04-11T00:07:34.815Z,22.62
2023-04-11T00:08:34.862Z,22.64
2023-04-11T00:09:34.899Z,22.61
2023-04-11T00:10:34.952Z,22.56
2023-04-11T00:11:34.978Z,22.59
2023-04-11T00:12:35.032Z,22.65
2023-04-11T00:13:35.058Z,22.61
2023-04-11T00:14:35.100Z,22.58
2023-04-11T00:15:35.136Z,22.61
2023-04-11T00:16:35.219Z,22.59
2023-04-11T00:17:35.248Z,22.61
2023-04-11T00:18:35.275Z,22.59
2023-04-11T00:19:35.302Z,22.60
2023-04-11T00:20:35.341Z,22.56
2023-04-11T00:21:35.392Z,22.63
2023-04-11T00:22:35.432Z,22.56
2023-04-11T00:23:35.469Z,22.62
2023-04-11T00:24:35.544Z,22.65
2023-04-11T00:25:35.545Z,22.51
2023-04-11T00:26:35.602Z,22.60
2023-04-11T00:27:35.617Z,22.56
2023-04-11T00:28:35.667Z,22.57
2023-04-11T00:29:35.720Z,22.57
2023-04-11T00:30:35.763Z,22.57
2023-04-11T00:31:35.841Z,22.60
2023-04-11T00:32:35.922Z,22.54
2023-04-11T00:33:35.891Z,22.57
2023-04-11T00:34:35.939Z,22.54
2023-04-11T00:35:35.987Z,22.60
2023-04-11T00:36:36.106Z,22.56
2023-04-11T00:37:36.213Z,22.59
2023-04-11T00:38:36.114Z,22.54
2023-04-11T00:39:36.135Z,22.54
2023-04-11T00:40:36.187Z,22.59
2023-04-11T00:41:36.227Z,22.59
2023-04-11T00:42:36.267Z,22.54
2023-04-11T00:43:36.310Z,22.55
2023-04-11T00:44:36.441Z,22.57
2023-04-11T00:45:36.406Z,22.59
2023-04-11T00:46:36.446Z,22.55
2023-04-11T00:47:36.522Z,22.54
2023-04-11T00:48:36.524Z,22.59
2023-04-11T00:49:36.538Z,22.55
2023-04-11T00:50:36.601Z,22.55
2023-04-11T00:51:36.629Z,22.60
2023-04-11T00:52:36.673Z,22.52
2023-04-11T00:53:36.713Z,22.54
2023-04-11T00:54:36.756Z,22.52
2023-04-11T00:55:36.797Z,22.52
2023-04-11T00:56:36.830Z,22.55
2023-04-11T00:57:36.872Z,22.54
2023-04-11T00:58:36.913Z,22.52
2023-04-11T00:59:36.948Z,22.54
2023-04-11T01:00:36.996Z,22.60
2023-04-11T01:01:37.087Z,22.59
2023-04-11T01:02:37.201Z,22.55
2023-04-11T01:03:37.191Z,22.54
2023-04-11T01:04:37.197Z,22.59
2023-04-11T01:05:37.239Z,22.57
2023-04-11T01:06:37.277Z,22.55
2023-04-11T01:07:37.338Z,22.57
2023-04-11T01:08:37.362Z,22.51
2023-04-11T01:09:37.411Z,22.61
2023-04-11T01:10:37.451Z,22.59
2023-04-11T01:11:37.504Z,22.54
2023-04-11T01:12:37.552Z,22.52
2023-04-11T01:13:37.586Z,22.55
2023-04-11T01:14:37.629Z,22.57
2023-04-11T01:15:37.704Z,22.55
2023-04-11T01:16:37.757Z,22.57
2023-04-11T01:17:37.810Z,22.55
2023-04-11T01:18:37.799Z,22.57
2023-04-11T01:19:37.854Z,22.52
2023-04-11T01:20:37.913Z,22.58
2023-04-11T01:21:37.967Z,22.60
2023-04-11T01:22:38.026Z,22.58
2023-04-11T01:23:38.069Z,22.60
2023-04-11T01:24:38.132Z,22.54
2023-04-11T01:25:38.157Z,22.54
2023-04-11T01:26:38.210Z,22.58
2023-04-11T01:27:38.263Z,22.58
2023-04-11T01:28:38.308Z,22.57
2023-04-11T01:29:38.365Z,22.57
2023-04-11T01:30:38.438Z,22.58
2023-04-11T01:31:38.456Z,22.54
2023-04-11T01:32:38.524Z,22.55
2023-04-11T01:33:38.545Z,22.52
2023-04-11T01:34:38.600Z,22.57
2023-04-11T01:35:38.670Z,22.58
2023-04-11T01:36:38.696Z,22.58
2023-04-11T01:37:38.733Z,22.56
2023-04-11T01:38:38.793Z,22.52
2023-04-11T01:39:38.837Z,22.55
2023-04-11T01:40:38.898Z,22.58
2023-04-11T01:41:38.959Z,22.57
2023-04-11T01:42:39.001Z,22.55
2023-04-11T01:43:39.043Z,22.61
2023-04-11T01:44:39.106Z,22.55
2023-04-11T01:45:39.151Z,22.58
2023-04-11T01:46:39.216Z,22.56
2023-04-11T01:47:39.378Z,22.60
2023-04-11T01:48:39.382Z,22.58
2023-04-11T01:49:39.363Z,22.60
2023-04-11T01:50:39.426Z,22.60
2023-04-11T01:51:39.468Z,22.60
2023-04-11T01:52:39.548Z,22.62
2023-04-11T01:53:39.570Z,22.60
2023-04-11T01:54:39.643Z,22.61
2023-04-11T01:55:39.669Z,22.58
2023-04-11T01:56:39.720Z,22.66
2023-04-11T01:57:39.774Z,22.64
2023-04-11T01:58:39.834Z,22.62
2023-04-11T01:59:39.863Z,22.56
2023-04-11T02:00:39.918Z,22.61
2023-04-11T02:01:40.036Z,22.58
2023-04-11T02:02:40.167Z,22.62
2023-04-11T02:03:40.219Z,22.61
2023-04-11T02:04:40.110Z,22.62
2023-04-11T02:05:40.167Z,22.62
2023-04-11T02:06:40.240Z,22.66
2023-04-11T02:07:40.283Z,22.62
2023-04-11T02:08:40.340Z,22.61
2023-04-11T02:09:40.396Z,22.64
2023-04-11T02:10:40.449Z,22.64
2023-04-11T02:11:40.600Z,22.64
2023-04-11T02:12:40.565Z,22.64
2023-04-11T02:13:40.602Z,22.64
2023-04-11T02:14:40.662Z,22.62
2023-04-11T02:15:40.734Z,22.64
2023-04-11T02:16:40.763Z,22.64
2023-04-11T02:17:40.847Z,22.65
2023-04-11T02:18:40.858Z,22.62
2023-04-11T02:19:40.908Z,22.62
2023-04-11T02:20:40.948Z,22.65
2023-04-11T02:21:40.988Z,22.68
2023-04-11T02:22:41.048Z,22.68
2023-04-11T02:23:41.038Z,22.65
2023-04-11T02:24:41.023Z,22.65
2023-04-11T02:25:40.992Z,22.67
2023-04-11T02:26:40.978Z,22.64
2023-04-11T02:27:40.983Z,22.64
2023-04-11T02:28:40.968Z,22.62
2023-04-11T02:29:40.943Z,22.65
2023-04-11T02:30:41.012Z,22.59
2023-04-11T02:31:41.118Z,22.64
2023-04-11T02:32:41.123Z,22.65
2023-04-11T02:33:41.061Z,22.65
2023-04-11T02:34:41.101Z,22.65
2023-04-11T02:35:41.154Z,22.64
2023-04-11T02:36:41.205Z,22.65
2023-04-11T02:37:41.259Z,22.65
2023-04-11T02:38:41.274Z,22.70
2023-04-11T02:39:41.331Z,22.64
2023-04-11T02:40:41.356Z,22.64
2023-04-11T02:41:41.416Z,22.64
2023-04-11T02:42:41.453Z,22.59
2023-04-11T02:43:41.516Z,22.70
2023-04-11T02:44:41.562Z,22.68
2023-04-11T02:45:41.597Z,22.65
2023-04-11T02:46:41.639Z,22.68
2023-04-11T02:47:41.752Z,22.61
2023-04-11T02:48:41.738Z,22.62
2023-04-11T02:49:41.771Z,22.67
2023-04-11T02:50:41.808Z,22.64
2023-04-11T02:51:41.858Z,22.65
2023-04-11T02:52:41.941Z,22.65
2023-04-11T02:53:42.002Z,22.64
2023-04-11T02:54:42.024Z,22.64
2023-04-11T02:55:42.067Z,22.62
2023-04-11T02:56:42.127Z,22.61
2023-04-11T02:57:42.180Z,22.56
2023-04-11T02:58:42.293Z,22.16
2023-04-11T02:59:42.203Z,21.90
2023-04-11T03:00:42.195Z,21.69
2023-04-11T03:01:42.263Z,21.56
2023-04-11T03:02:42.213Z,21.44
2023-04-11T03:03:42.191Z,21.33
2023-04-11T03:04:42.138Z,21.18
2023-04-11T03:05:42.133Z,21.07
2023-04-11T03:06:42.130Z,20.93
2023-04-11T03:07:42.100Z,20.94
2023-04-11T03:08:42.083Z,20.79
2023-04-11T03:09:42.081Z,20.65
2023-04-11T03:10:42.054Z,20.57
2023-04-11T03:11:42.045Z,20.59
2023-04-11T03:12:42.039Z,20.43
2023-04-11T03:13:42.078Z,20.42
2023-04-11T03:14:42.118Z,20.37
2023-04-11T03:15:42.260Z,20.28
2023-04-11T03:16:42.227Z,20.23
2023-04-11T03:17:42.368Z,20.18
2023-04-11T03:18:42.370Z,20.10
2023-04-11T03:19:42.399Z,20.12
2023-04-11T03:20:42.397Z,20.01
2023-04-11T03:21:42.414Z,20.05
2023-04-11T03:22:42.422Z,20.01
2023-04-11T03:23:42.416Z,19.99
2023-04-11T03:24:42.426Z,19.91
2023-04-11T03:25:42.450Z,19.90
2023-04-11T03:26:42.422Z,19.93
2023-04-11T03:27:42.436Z,19.85
2023-04-11T03:28:42.423Z,19.82
2023-04-11T03:29:42.419Z,19.83
2023-04-11T03:30:42.426Z,19.76
2023-04-11T03:31:42.473Z,19.80
2023-04-11T03:32:42.461Z,19.71
2023-04-11T03:33:42.465Z,19.71
2023-04-11T03:34:42.465Z,19.72
2023-04-11T03:35:42.514Z,19.72
2023-04-11T03:36:42.438Z,19.71
2023-04-11T03:37:42.446Z,19.68
2023-04-11T03:38:42.440Z,19.69
2023-04-11T03:39:42.458Z,19.66
2023-04-11T03:40:42.449Z,19.67
2023-04-11T03:41:42.448Z,19.64
2023-04-11T03:42:42.425Z,19.67
2023-04-11T03:43:42.430Z,19.69
2023-04-11T03:44:42.422Z,19.60
2023-04-11T03:45:42.414Z,19.59
2023-04-11T03:46:42.494Z,19.64
2023-04-11T03:47:42.475Z,19.59
2023-04-11T03:48:42.442Z,19.62
2023-04-11T03:49:42.423Z,19.56
2023-04-11T03:50:42.433Z,19.56
2023-04-11T03:51:42.432Z,19.72
2023-04-11T03:52:42.437Z,19.57
2023-04-11T03:53:42.468Z,19.54
2023-04-11T03:54:42.473Z,19.57
2023-04-11T03:55:42.485Z,19.62
2023-04-11T03:56:42.522Z,19.47
2023-04-11T03:57:42.507Z,19.54
2023-04-11T03:58:42.509Z,19.50
2023-04-11T03:59:42.530Z,19.45
2023-04-11T04:00:42.544Z,19.51
2023-04-11T04:01:42.598Z,19.44
2023-04-11T04:02:42.912Z,19.47
2023-04-11T04:03:42.938Z,19.50
2023-04-11T04:04:42.659Z,19.44
2023-04-11T04:05:42.634Z,19.49
2023-04-11T04:06:42.627Z,19.45
2023-04-11T04:07:42.650Z,19.40
2023-04-11T04:08:42.658Z,19.40
2023-04-11T04:09:42.689Z,19.42
2023-04-11T04:10:42.695Z,19.45
2023-04-11T04:11:42.731Z,19.43
2023-04-11T04:12:42.753Z,19.37
2023-04-11T04:13:42.776Z,19.39
2023-04-11T04:14:42.790Z,19.29
2023-04-11T04:15:42.813Z,19.39
2023-04-11T04:16:42.981Z,19.32
2023-04-11T04:17:42.939Z,19.35
2023-04-11T04:18:42.868Z,19.35
2023-04-11T04:19:42.851Z,19.29
2023-04-11T04:20:42.846Z,19.37
2023-04-11T04:21:42.849Z,19.29
2023-04-11T04:22:42.823Z,19.34
2023-04-11T04:23:42.827Z,19.34
2023-04-11T04:24:42.815Z,19.29
2023-04-11T04:25:42.822Z,19.26
2023-04-11T04:26:42.795Z,19.32
2023-04-11T04:27:42.793Z,19.28
2023-04-11T04:28:42.789Z,19.37
2023-04-11T04:29:42.779Z,19.34
2023-04-11T04:30:42.769Z,19.29
2023-04-11T04:31:42.800Z,19.35
2023-04-11T04:32:42.812Z,19.36
2023-04-11T04:33:42.865Z,19.40
2023-04-11T04:34:42.751Z,19.33
2023-04-11T04:35:42.737Z,19.36
2023-04-11T04:36:42.714Z,19.33
2023-04-11T04:37:42.706Z,19.38
2023-04-11T04:38:42.709Z,19.39
2023-04-11T04:39:42.754Z,19.41
2023-04-11T04:40:42.750Z,19.36
2023-04-11T04:41:42.784Z,19.39
2023-04-11T04:42:42.788Z,19.39
2023-04-11T04:43:42.819Z,19.45
2023-04-11T04:44:42.834Z,19.44
2023-04-11T04:45:42.896Z,19.42
2023-04-11T04:46:42.885Z,19.53
2023-04-11T04:47:42.973Z,19.47
2023-04-11T04:48:42.934Z,19.45
2023-04-11T04:49:42.961Z,19.50
2023-04-11T04:50:43.004Z,19.47
2023-04-11T04:51:43.026Z,19.51
2023-04-11T04:52:43.041Z,19.51
2023-04-11T04:53:43.078Z,19.56
2023-04-11T04:54:43.115Z,19.56
2023-04-11T04:55:43.147Z,19.56
2023-04-11T04:56:43.159Z,19.59
2023-04-11T04:57:43.182Z,19.62
2023-04-11T04:58:43.206Z,19.63
2023-04-11T04:59:43.238Z,19.65
2023-04-11T05:00:43.254Z,19.58
2023-04-11T05:01:43.434Z,19.70
2023-04-11T05:02:43.424Z,19.66
2023-04-11T05:03:43.421Z,19.66
2023-04-11T05:04:43.355Z,19.68
2023-04-11T05:05:43.363Z,19.68
2023-04-11T05:06:43.349Z,19.66
2023-04-11T05:07:43.334Z,19.71
2023-04-11T05:08:43.344Z,19.74
2023-04-11T05:09:43.328Z,19.73
2023-04-11T05:10:43.300Z,19.71
2023-04-11T05:11:43.294Z,19.69
2023-04-11T05:12:43.292Z,19.63
2023-04-11T05:13:43.287Z,19.63
2023-04-11T05:14:43.268Z,19.73
2023-04-11T05:15:43.265Z,19.73
2023-04-11T05:16:43.296Z,19.65
2023-04-11T05:17:43.275Z,19.66
2023-04-11T05:18:43.279Z,19.74
2023-04-11T05:19:43.263Z,19.71
2023-04-11T05:20:43.265Z,19.71
2023-04-11T05:21:43.272Z,19.68
2023-04-11T05:22:43.247Z,19.65
2023-04-11T05:23:43.281Z,19.71
2023-04-11T05:24:43.264Z,19.75
2023-04-11T05:25:43.235Z,19.71
2023-04-11T05:26:43.229Z,19.72
2023-04-11T05:27:43.222Z,19.71
2023-04-11T05:28:43.226Z,19.78
2023-04-11T05:29:43.237Z,19.73
2023-04-11T05:30:43.285Z,19.92
2023-04-11T05:31:43.239Z,19.98
2023-04-11T05:32:43.244Z,21.49
2023-04-11T05:33:43.206Z,22.10
2023-04-11T05:34:43.214Z,22.33
2023-04-11T05:35:43.198Z,22.22
2023-04-11T05:36:43.168Z,23.60
2023-04-11T05:37:43.263Z,22.96
2023-04-11T05:38:43.150Z,23.16
2023-04-11T05:39:43.145Z,23.06
2023-04-11T05:40:43.128Z,23.36
2023-04-11T05:41:43.110Z,23.74
2023-04-11T05:42:43.121Z,23.87
2023-04-11T05:43:43.176Z,24.01
2023-04-11T05:44:43.209Z,23.92
2023-04-11T05:45:43.278Z,23.95
2023-04-11T05:46:43.287Z,24.62
2023-04-11T05:47:43.358Z,24.42
2023-04-11T05:48:43.331Z,24.37
2023-04-11T05:49:43.372Z,25.14
2023-04-11T05:50:43.382Z,25.20
2023-04-11T05:51:43.414Z,21.46
2023-04-11T05:52:43.447Z,22.87
2023-04-11T05:53:43.514Z,22.92
2023-04-11T05:54:43.520Z,22.52
2023-04-11T05:55:43.603Z,22.80
2023-04-11T05:56:43.614Z,23.42
2023-04-11T05:57:43.640Z,24.27
2023-04-11T05:58:43.687Z,23.57
2023-04-11T05:59:43.733Z,24.15
2023-04-11T06:00:43.764Z,24.17
2023-04-11T06:01:43.860Z,24.07
2023-04-11T06:02:44.043Z,24.44
2023-04-11T06:03:44.069Z,24.05
2023-04-11T06:04:44.023Z,24.17
2023-04-11T06:05:43.942Z,23.85
2023-04-11T06:06:43.951Z,23.96
2023-04-11T06:07:43.955Z,23.42
2023-04-11T06:08:43.966Z,23.37
2023-04-11T06:09:43.955Z,23.26
2023-04-11T06:10:43.957Z,23.30
2023-04-11T06:11:43.957Z,23.37
2023-04-11T06:12:43.981Z,23.24
2023-04-11T06:13:43.963Z,23.01
2023-04-11T06:14:43.984Z,23.01
2023-04-11T06:15:43.981Z,22.99
2023-04-11T06:16:43.972Z,22.57
2023-04-11T06:17:44.039Z,22.97
2023-04-11T06:18:43.973Z,22.68
2023-04-11T06:19:43.972Z,22.65
2023-04-11T06:20:43.993Z,22.42
2023-04-11T06:21:44.082Z,22.34
2023-04-11T06:22:44.152Z,22.31
2023-04-11T06:23:44.195Z,22.62
2023-04-11T06:24:44.209Z,22.30
2023-04-11T06:25:44.273Z,22.45
2023-04-11T06:26:44.308Z,22.34
2023-04-11T06:27:44.378Z,22.43
2023-04-11T06:28:44.498Z,22.32
2023-04-11T06:29:44.514Z,22.58
2023-04-11T06:30:44.592Z,22.47
2023-04-11T06:31:44.706Z,22.23
2023-04-11T06:32:44.714Z,22.46
2023-04-11T06:33:44.749Z,22.69
2023-04-11T06:34:44.805Z,22.34
2023-04-11T06:35:44.906Z,22.38
2023-04-11T06:36:44.907Z,22.18
2023-04-11T06:37:44.949Z,22.35
2023-04-11T06:38:45.016Z,22.53
2023-04-11T06:39:45.100Z,22.21
2023-04-11T06:40:45.163Z,22.36
2023-04-11T06:41:45.231Z,23.18
2023-04-11T06:42:45.265Z,22.10
2023-04-11T06:43:45.302Z,22.14
2023-04-11T06:44:45.381Z,22.84
2023-04-11T06:45:45.364Z,23.39
2023-04-11T06:46:45.416Z,23.20
2023-04-11T06:47:45.466Z,23.42
2023-04-11T06:48:45.394Z,23.24
2023-04-11T06:49:45.517Z,23.50
2023-04-11T06:50:45.485Z,23.68
2023-04-11T06:51:45.522Z,23.57
2023-04-11T06:52:45.567Z,23.75
2023-04-11T06:53:45.551Z,24.21
2023-04-11T06:54:45.566Z,24.17
2023-04-11T06:55:45.555Z,24.08
2023-04-11T06:56:45.632Z,24.27
2023-04-11T06:57:45.660Z,24.19
2023-04-11T06:58:45.725Z,24.37
2023-04-11T06:59:45.872Z,24.24
2023-04-11T07:00:45.766Z,23.90
2023-04-11T07:01:45.835Z,23.97
2023-04-11T07:02:45.974Z,23.80
2023-04-11T07:03:45.989Z,24.16
2023-04-11T07:04:46.009Z,24.38
2023-04-11T07:05:45.854Z,24.43
2023-04-11T07:06:45.837Z,24.46
2023-04-11T07:07:45.839Z,24.59
2023-04-11T07:08:45.817Z,24.65
2023-04-11T07:09:45.812Z,24.57
2023-04-11T07:10:45.861Z,24.47
2023-04-11T07:11:45.864Z,24.43
2023-04-11T07:12:45.902Z,23.65
2023-04-11T07:13:45.868Z,22.95
2023-04-11T07:14:45.860Z,22.51
2023-04-11T07:15:45.911Z,21.91
2023-04-11T07:16:46.010Z,21.33
2023-04-11T07:17:45.861Z,21.78
2023-04-11T07:18:45.813Z,21.90
2023-04-11T07:19:45.808Z,21.91
2023-04-11T07:20:45.810Z,21.99
2023-04-11T07:21:45.801Z,21.56
2023-04-11T07:22:45.805Z,21.68
2023-04-11T07:23:45.785Z,21.51
2023-04-11T07:24:45.787Z,21.43
2023-04-11T07:25:45.782Z,21.68
2023-04-11T07:26:45.782Z,21.85
2023-04-11T07:27:45.781Z,21.79
2023-04-11T07:28:45.821Z,22.03
2023-04-11T07:29:45.855Z,21.88
2023-04-11T07:30:45.893Z,21.63
2023-04-11T07:31:46.014Z,21.78
2023-04-11T07:32:45.952Z,21.87
2023-04-11T07:33:46.003Z,22.02
2023-04-11T07:34:46.030Z,22.16
2023-04-11T07:35:46.122Z,21.57
2023-04-11T07:36:46.076Z,21.81
2023-04-11T07:37:46.069Z,22.21
2023-04-11T07:38:46.085Z,22.51
2023-04-11T07:39:46.103Z,22.45
2023-04-11T07:40:46.186Z,24.85
2023-04-11T07:41:46.212Z,24.15
2023-04-11T07:42:46.238Z,23.86
2023-04-11T07:43:46.248Z,23.82
2023-04-11T07:44:46.265Z,23.84
2023-04-11T07:45:46.294Z,23.97
2023-04-11T07:46:46.263Z,24.11
2023-04-11T07:47:46.724Z,24.29
2023-04-11T07:48:46.235Z,24.33
2023-04-11T07:49:46.296Z,24.36
2023-04-11T07:50:46.336Z,24.44
2023-04-11T07:51:46.385Z,24.46
2023-04-11T07:52:46.433Z,24.60
2023-04-11T07:53:46.468Z,24.62
2023-04-11T07:54:46.446Z,24.53
2023-04-11T07:55:46.465Z,24.49
2023-04-11T07:56:46.417Z,24.48
2023-04-11T07:57:46.377Z,24.61
2023-04-11T07:58:46.363Z,24.61
2023-04-11T07:59:46.397Z,24.55
2023-04-11T08:00:46.335Z,24.50
2023-04-11T08:01:46.458Z,24.40
2023-04-11T08:02:46.423Z,24.39
2023-04-11T08:03:46.371Z,24.41
2023-04-11T08:04:46.355Z,24.37
2023-04-11T08:05:46.253Z,24.41
2023-04-11T08:06:46.229Z,24.39
2023-04-11T08:07:46.219Z,24.37
2023-04-11T08:08:46.195Z,24.33
2023-04-11T08:09:46.183Z,24.29
2023-04-11T08:10:46.196Z,24.29
2023-04-11T08:11:46.157Z,24.32
2023-04-11T08:12:46.140Z,24.29
2023-04-11T08:13:46.138Z,24.28
2023-04-11T08:14:46.138Z,24.24
2023-04-11T08:15:46.105Z,24.27
2023-04-11T08:16:46.099Z,24.28
2023-04-11T08:17:46.091Z,24.20
2023-04-11T08:18:46.082Z,24.16
2023-04-11T08:19:46.038Z,24.13
2023-04-11T08:20:46.037Z,24.13
2023-04-11T08:21:46.012Z,24.15
2023-04-11T08:22:46.009Z,24.15
2023-04-11T08:23:46.049Z,24.11
2023-04-11T08:24:45.967Z,24.16
2023-04-11T08:25:45.949Z,24.08
2023-04-11T08:26:45.933Z,24.15
2023-04-11T08:27:45.919Z,24.21
2023-04-11T08:28:45.898Z,24.33
2023-04-11T08:29:45.914Z,24.17
2023-04-11T08:30:45.887Z,23.75
2023-04-11T08:31:45.847Z,23.77
2023-04-11T08:32:45.959Z,23.70
2023-04-11T08:33:45.811Z,23.60
2023-04-11T08:34:45.802Z,23.44
2023-04-11T08:35:45.839Z,23.16
2023-04-11T08:36:45.779Z,22.91
2023-04-11T08:37:45.753Z,22.59
2023-04-11T08:38:45.733Z,21.99
2023-04-11T08:39:45.735Z,21.98
2023-04-11T08:40:45.719Z,21.80
2023-04-11T08:41:45.722Z,21.68
2023-04-11T08:42:45.710Z,21.58
2023-04-11T08:43:45.691Z,21.53
2023-04-11T08:44:45.678Z,21.57
2023-04-11T08:45:45.701Z,21.58
2023-04-11T08:46:45.644Z,21.47
2023-04-11T08:47:46.074Z,21.50
2023-04-11T08:48:45.637Z,21.50
2023-04-11T08:49:45.598Z,21.37
2023-04-11T08:50:45.582Z,21.85
2023-04-11T08:51:45.583Z,22.82
2023-04-11T08:52:45.552Z,22.44
2023-04-11T08:53:45.552Z,22.20
2023-04-11T08:54:45.534Z,21.88
2023-04-11T08:55:45.508Z,21.88
2023-04-11T08:56:45.507Z,21.86
2023-04-11T08:57:45.496Z,21.69
2023-04-11T08:58:45.507Z,21.57
2023-04-11T08:59:45.511Z,21.48
2023-04-11T09:00:45.493Z,21.54
2023-04-11T09:01:45.490Z,21.59
2023-04-11T09:02:45.477Z,21.49
2023-04-11T09:03:45.492Z,21.56
2023-04-11T09:04:45.433Z,21.62
2023-04-11T09:05:45.381Z,21.60
2023-04-11T09:06:45.382Z,21.56
2023-04-11T09:07:45.369Z,21.59
2023-04-11T09:08:45.385Z,21.51
2023-04-11T09:09:45.356Z,21.61
2023-04-11T09:10:45.421Z,21.60
2023-04-11T09:11:45.339Z,21.68
2023-04-11T09:12:45.325Z,21.59
2023-04-11T09:13:45.308Z,21.61
2023-04-11T09:14:45.341Z,21.59
2023-04-11T09:15:45.336Z,21.42
2023-04-11T09:16:45.293Z,21.54
2023-04-11T09:17:45.349Z,21.54
2023-04-11T09:18:45.271Z,21.54
2023-04-11T09:19:48.296Z,21.48
2023-04-11T09:20:45.240Z,21.50
2023-04-11T09:21:45.235Z,21.49
2023-04-11T09:22:45.224Z,21.46
2023-04-11T09:23:45.215Z,21.38
2023-04-11T09:24:45.194Z,21.38
2023-04-11T09:25:45.181Z,21.35
2023-04-11T09:26:45.250Z,21.33
2023-04-11T09:27:45.175Z,21.29
2023-04-11T09:28:45.170Z,21.18
2023-04-11T09:29:45.141Z,21.15
2023-04-11T09:30:45.123Z,21.18
2023-04-11T09:31:45.128Z,21.07
2023-04-11T09:32:45.112Z,21.17
2023-04-11T09:33:45.069Z,21.18
2023-04-11T09:34:45.057Z,21.03
2023-04-11T09:35:45.089Z,20.72
2023-04-11T09:36:45.059Z,20.78
2023-04-11T09:37:45.026Z,20.76
2023-04-11T09:38:45.008Z,20.87
2023-04-11T09:39:44.995Z,20.85
2023-04-11T09:40:44.989Z,20.92
2023-04-11T09:41:44.986Z,20.93
2023-04-11T09:42:45.016Z,20.97
2023-04-11T09:43:44.991Z,21.01
2023-04-11T09:44:44.959Z,22.12
2023-04-11T09:45:54.134Z,21.94
2023-04-11T09:46:45.992Z,21.92
2023-04-11T09:47:45.086Z,22.02
2023-04-11T09:49:44.931Z,22.19
2023-04-11T09:50:44.949Z,22.36
2023-04-11T09:51:44.890Z,22.47
2023-04-11T09:52:44.885Z,22.57
2023-04-11T09:53:44.886Z,22.69
2023-04-11T09:54:44.853Z,22.80
2023-04-11T09:55:44.838Z,22.88
2023-04-11T09:56:44.881Z,23.37
2023-04-11T09:57:44.815Z,23.32
2023-04-11T09:58:44.795Z,23.41
2023-04-11T09:59:44.776Z,23.45
2023-04-11T10:00:44.759Z,23.53
2023-04-11T10:01:44.816Z,23.72
2023-04-11T10:02:44.914Z,23.79
2023-04-11T10:03:44.760Z,23.84
2023-04-11T10:04:44.840Z,24.00
2023-04-11T10:05:44.815Z,24.00
2023-04-11T10:06:44.855Z,24.13
2023-04-11T10:07:44.875Z,24.13
2023-04-11T10:08:44.858Z,24.28
2023-04-11T10:09:44.928Z,24.38
2023-04-11T10:10:44.833Z,24.32
2023-04-11T10:11:44.847Z,24.52
2023-04-11T10:12:44.799Z,24.58
2023-04-11T10:13:44.851Z,24.61
2023-04-11T10:14:44.764Z,24.58
2023-04-11T10:15:44.741Z,24.75
2023-04-11T10:16:44.902Z,24.84
2023-04-11T10:17:44.764Z,24.81
2023-04-11T10:18:44.727Z,24.82
2023-04-11T10:19:44.694Z,24.77
2023-04-11T10:20:44.678Z,24.77
2023-04-11T10:21:44.645Z,24.77
2023-04-11T10:22:44.649Z,24.78
2023-04-11T10:23:44.610Z,24.81
2023-04-11T10:24:44.627Z,24.83
2023-04-11T10:25:44.649Z,24.76
2023-04-11T10:26:44.663Z,24.81
2023-04-11T10:27:44.686Z,24.83
2023-04-11T10:28:44.689Z,24.74
2023-04-11T10:29:44.694Z,24.77
2023-04-11T10:30:44.697Z,24.87
2023-04-11T10:31:44.737Z,24.86
2023-04-11T10:32:44.804Z,24.82
2023-04-11T10:33:44.732Z,24.84
2023-04-11T10:34:44.733Z,24.80
2023-04-11T10:35:44.851Z,25.11
2023-04-11T10:36:44.765Z,24.98
2023-04-11T10:37:44.773Z,24.82
2023-04-11T10:38:44.782Z,24.95
2023-04-11T10:39:44.745Z,24.78
2023-04-11T10:40:44.736Z,25.49
2023-04-11T10:41:44.740Z,24.43
2023-04-11T10:42:44.711Z,24.17
2023-04-11T10:43:44.695Z,24.22
2023-04-11T10:44:44.670Z,23.72
2023-04-11T10:45:44.665Z,23.83
2023-04-11T10:46:44.650Z,23.61
2023-04-11T10:47:44.691Z,23.38
2023-04-11T10:48:44.604Z,22.57
2023-04-11T10:49:45.465Z,22.57
2023-04-11T10:50:44.588Z,22.48
2023-04-11T10:51:44.562Z,22.56
2023-04-11T10:52:44.540Z,22.72
2023-04-11T10:53:44.530Z,22.61
2023-04-11T10:54:44.513Z,22.61
2023-04-11T10:55:44.511Z,22.71
2023-04-11T10:56:44.476Z,21.71
2023-04-11T10:57:44.477Z,22.11
2023-04-11T10:58:44.433Z,22.07
2023-04-11T10:59:44.474Z,21.79
2023-04-11T11:00:44.548Z,22.47
2023-04-11T11:02:44.804Z,21.91
2023-04-11T11:03:44.656Z,22.16
2023-04-11T11:04:44.618Z,22.23
2023-04-11T11:05:44.532Z,22.67
2023-04-11T11:06:50.949Z,21.99
2023-04-11T11:07:45.545Z,22.63
2023-04-11T11:08:44.461Z,22.38
2023-04-11T11:09:44.461Z,22.22
2023-04-11T11:10:44.427Z,22.61
2023-04-11T11:11:44.419Z,22.49
2023-04-11T11:12:44.413Z,22.69
2023-04-11T11:13:44.402Z,22.29
2023-04-11T11:14:44.406Z,22.38
2023-04-11T11:15:44.368Z,22.73
2023-04-11T11:16:45.140Z,22.18
2023-04-11T11:17:44.371Z,22.30
2023-04-11T11:18:44.339Z,21.95
2023-04-11T11:19:44.374Z,22.28
2023-04-11T11:20:44.316Z,22.12
2023-04-11T11:21:44.322Z,23.38
2023-04-11T11:22:44.314Z,22.75
2023-04-11T11:23:44.304Z,23.85
2023-04-11T11:24:44.292Z,23.60
2023-04-11T11:25:44.297Z,23.43
2023-04-11T11:26:44.387Z,23.45
2023-04-11T11:27:44.423Z,23.59
2023-04-11T11:28:44.435Z,23.48
2023-04-11T11:29:44.484Z,23.43
2023-04-11T11:30:44.491Z,23.42
2023-04-11T11:31:44.582Z,23.29
2023-04-11T11:32:44.577Z,23.26
2023-04-11T11:33:44.548Z,23.17
2023-04-11T11:34:44.549Z,23.12
2023-04-11T11:35:44.603Z,23.07
2023-04-11T11:36:44.629Z,23.08
2023-04-11T11:37:44.588Z,23.06
2023-04-11T11:38:44.586Z,23.07
2023-04-11T11:39:44.589Z,22.98
2023-04-11T11:40:44.588Z,22.86
2023-04-11T11:41:44.610Z,22.83
2023-04-11T11:42:44.626Z,22.83
2023-04-11T11:43:44.601Z,22.77
2023-04-11T11:44:44.613Z,22.69
2023-04-11T11:45:44.617Z,22.68
2023-04-11T11:46:44.614Z,22.62
2023-04-11T11:47:44.651Z,22.60
2023-04-11T11:48:44.624Z,22.60
2023-04-11T11:49:44.679Z,22.54
2023-04-11T11:50:44.625Z,22.60
2023-04-11T11:51:44.621Z,22.89
2023-04-11T11:52:44.646Z,23.01
2023-04-11T11:53:44.617Z,22.94
2023-04-11T11:54:44.620Z,22.95
2023-04-11T11:55:44.632Z,23.18
2023-04-11T11:56:44.608Z,23.03
2023-04-11T11:57:44.589Z,23.30
2023-04-11T11:58:44.579Z,28.60
2023-04-11T11:59:44.545Z,26.57
2023-04-11T12:00:44.541Z,26.77
2023-04-11T12:01:44.531Z,26.67
2023-04-11T12:02:44.827Z,26.72
2023-04-11T12:03:44.700Z,27.06
2023-04-11T12:04:44.660Z,26.70
2023-04-11T12:05:44.447Z,26.76
2023-04-11T12:06:44.421Z,26.46
2023-04-11T12:07:44.390Z,26.30
2023-04-11T12:08:45.675Z,26.23
2023-04-11T12:09:44.363Z,26.12
2023-04-11T12:10:44.351Z,26.03
2023-04-11T12:11:44.330Z,25.96
2023-04-11T12:12:44.290Z,25.85
2023-04-11T12:13:45.286Z,25.81
2023-04-11T12:14:44.257Z,25.70
2023-04-11T12:15:44.288Z,25.60
2023-04-11T12:16:44.218Z,25.58
2023-04-11T12:17:44.219Z,25.51
2023-04-11T12:18:44.215Z,25.43
2023-04-11T12:19:44.172Z,25.33
2023-04-11T12:20:44.134Z,25.27
2023-04-11T12:21:44.125Z,25.21
2023-04-11T12:22:44.182Z,25.19
2023-04-11T12:23:44.118Z,25.17
2023-04-11T12:24:44.184Z,25.09
2023-04-11T12:25:44.036Z,25.00
2023-04-11T12:26:57.547Z,24.95
2023-04-11T12:27:46.942Z,24.93
2023-04-11T12:28:44.041Z,24.94
2023-04-11T12:29:43.961Z,24.89
2023-04-11T12:30:43.977Z,24.86
2023-04-11T12:31:45.730Z,24.76
2023-04-11T12:32:44.073Z,24.83
2023-04-11T12:33:43.901Z,24.88
2023-04-11T12:34:43.953Z,24.81
2023-04-11T12:35:43.901Z,24.73
2023-04-11T12:36:43.828Z,24.74
2023-04-11T12:37:43.806Z,24.71
2023-04-11T12:38:43.792Z,24.65
2023-04-11T12:39:43.777Z,24.66
2023-04-11T12:40:43.740Z,24.60
2023-04-11T12:41:43.728Z,24.61
2023-04-11T12:43:43.699Z,24.54
2023-04-11T12:44:43.683Z,24.54
2023-04-11T12:45:43.669Z,24.44
2023-04-11T12:46:43.821Z,24.44
2023-04-11T12:47:43.654Z,24.46
2023-04-11T12:48:43.625Z,24.40
2023-04-11T12:49:43.602Z,24.43
2023-04-11T12:50:43.593Z,24.32
2023-04-11T12:51:43.571Z,24.32
2023-04-11T12:52:43.556Z,24.28
2023-04-11T12:53:43.550Z,24.31
2023-04-11T12:54:43.532Z,24.25
2023-04-11T12:55:43.545Z,24.24